sensor_id;sensor_type;location;lat;lon;timestamp;pressure;altitude;pressure_sealevel;temperature;humidity
74973;BME280;63529;56.320;43.990;2023-02-28T00:01:16;99698.22;;;-4.38;64.35
74973;BME280;63529;56.320;43.990;2023-02-28T00:03:42;99694.84;;;-4.47;64.07
74973;BME280;63529;56.320;43.990;2023-02-28T00:06:09;99698.28;;;-4.54;64.08
74973;BME280;63529;56.320;43.990;2023-02-28T00:08:36;99693.59;;;-4.67;63.49
74973;BME280;63529;56.320;43.990;2023-02-28T00:11:03;99695.75;;;-4.87;63.50
74973;BME280;63529;56.320;43.990;2023-02-28T00:13:29;99698.38;;;-5.03;63.61
74973;BME280;63529;56.320;43.990;2023-02-28T00:16:04;99698.06;;;-5.25;63.97
74973;BME280;63529;56.320;43.990;2023-02-28T00:18:31;99708.16;;;-5.38;64.37
74973;BME280;63529;56.320;43.990;2023-02-28T00:20:58;99695.16;;;-5.54;64.32
74973;BME280;63529;56.320;43.990;2023-02-28T00:23:24;99694.47;;;-5.64;64.68
74973;BME280;63529;56.320;43.990;2023-02-28T00:25:51;99688.59;;;-5.75;64.84
74973;BME280;63529;56.320;43.990;2023-02-28T00:28:17;99695.41;;;-5.82;64.77
74973;BME280;63529;56.320;43.990;2023-02-28T00:30:43;99690.88;;;-5.88;65.34
74973;BME280;63529;56.320;43.990;2023-02-28T00:33:09;99678.69;;;-5.95;65.35
74973;BME280;63529;56.320;43.990;2023-02-28T00:35:35;99670.72;;;-6.02;65.22
74973;BME280;63529;56.320;43.990;2023-02-28T00:38:02;99670.56;;;-6.09;65.37
74973;BME280;63529;56.320;43.990;2023-02-28T00:40:28;99667.78;;;-6.15;65.54
74973;BME280;63529;56.320;43.990;2023-02-28T00:42:55;99658.69;;;-6.19;65.51
74973;BME280;63529;56.320;43.990;2023-02-28T00:45:21;99655.06;;;-6.26;65.71
74973;BME280;63529;56.320;43.990;2023-02-28T00:47:47;99649.56;;;-6.32;65.61
74973;BME280;63529;56.320;43.990;2023-02-28T00:50:19;99652.47;;;-6.35;65.91
74973;BME280;63529;56.320;43.990;2023-02-28T00:52:46;99645.13;;;-6.39;65.97
74973;BME280;63529;56.320;43.990;2023-02-28T00:55:14;99637.50;;;-6.41;66.15
74973;BME280;63529;56.320;43.990;2023-02-28T00:57:40;99636.22;;;-6.45;66.19
74973;BME280;63529;56.320;43.990;2023-02-28T01:00:07;99635.69;;;-6.48;66.09
74973;BME280;63529;56.320;43.990;2023-02-28T01:02:34;99629.88;;;-6.50;66.17
74973;BME280;63529;56.320;43.990;2023-02-28T01:05:00;99614.75;;;-6.55;66.27
74973;BME280;63529;56.320;43.990;2023-02-28T01:07:29;99626.13;;;-6.56;66.55
74973;BME280;63529;56.320;43.990;2023-02-28T01:09:55;99618.50;;;-6.58;66.51
74973;BME280;63529;56.320;43.990;2023-02-28T01:12:20;99605.81;;;-6.61;66.44
74973;BME280;63529;56.320;43.990;2023-02-28T01:14:46;99605.97;;;-6.62;66.50
74973;BME280;63529;56.320;43.990;2023-02-28T01:17:12;99603.53;;;-6.64;66.64
74973;BME280;63529;56.320;43.990;2023-02-28T01:19:38;99595.25;;;-6.67;66.65
74973;BME280;63529;56.320;43.990;2023-02-28T01:22:05;99592.00;;;-6.69;66.58
74973;BME280;63529;56.320;43.990;2023-02-28T01:24:32;99588.25;;;-6.75;66.63
74973;BME280;63529;56.320;43.990;2023-02-28T01:26:58;99598.78;;;-6.76;66.89
74973;BME280;63529;56.320;43.990;2023-02-28T01:29:24;99590.31;;;-6.78;66.90
74973;BME280;63529;56.320;43.990;2023-02-28T01:31:52;99584.66;;;-6.82;67.05
74973;BME280;63529;56.320;43.990;2023-02-28T01:34:18;99589.84;;;-6.82;67.11
74973;BME280;63529;56.320;43.990;2023-02-28T01:36:45;99582.53;;;-6.87;67.03
74973;BME280;63529;56.320;43.990;2023-02-28T01:39:11;99594.19;;;-6.91;67.11
74973;BME280;63529;56.320;43.990;2023-02-28T01:41:38;99589.94;;;-6.92;67.32
74973;BME280;63529;56.320;43.990;2023-02-28T01:47:10;99581.16;;;-6.99;67.38
74973;BME280;63529;56.320;43.990;2023-02-28T01:49:36;99582.13;;;-7.00;67.57
74973;BME280;63529;56.320;43.990;2023-02-28T01:52:02;99581.78;;;-7.05;67.68
74973;BME280;63529;56.320;43.990;2023-02-28T01:54:31;99584.69;;;-7.08;67.75
74973;BME280;63529;56.320;43.990;2023-02-28T01:57:11;99580.47;;;-7.09;67.66
74973;BME280;63529;56.320;43.990;2023-02-28T01:59:43;99575.47;;;-7.11;67.73
74973;BME280;63529;56.320;43.990;2023-02-28T02:02:13;99568.78;;;-7.13;67.72
74973;BME280;63529;56.320;43.990;2023-02-28T02:04:58;99570.56;;;-7.14;67.93
74973;BME280;63529;56.320;43.990;2023-02-28T02:07:34;99547.69;;;-7.18;67.94
74973;BME280;63529;56.320;43.990;2023-02-28T02:10:24;99535.69;;;-7.19;68.04
74973;BME280;63529;56.320;43.990;2023-02-28T02:13:11;99539.25;;;-7.20;67.85
74973;BME280;63529;56.320;43.990;2023-02-28T02:18:47;99532.25;;;-7.28;68.19
74973;BME280;63529;56.320;43.990;2023-02-28T02:24:23;99520.56;;;-7.32;68.42
74973;BME280;63529;56.320;43.990;2023-02-28T02:40:58;99499.47;;;-7.37;68.83
74973;BME280;63529;56.320;43.990;2023-02-28T02:43:40;99494.78;;;-7.42;68.72
74973;BME280;63529;56.320;43.990;2023-02-28T02:46:42;99492.19;;;-7.42;68.84
74973;BME280;63529;56.320;43.990;2023-02-28T02:49:15;99489.59;;;-7.42;68.95
74973;BME280;63529;56.320;43.990;2023-02-28T02:51:42;99475.00;;;-7.43;68.97
74973;BME280;63529;56.320;43.990;2023-02-28T02:54:18;99464.63;;;-7.43;69.23
74973;BME280;63529;56.320;43.990;2023-02-28T02:56:48;99460.25;;;-7.42;69.37
74973;BME280;63529;56.320;43.990;2023-02-28T02:59:18;99450.88;;;-7.43;69.17
74973;BME280;63529;56.320;43.990;2023-02-28T03:01:59;99446.16;;;-7.40;69.16
74973;BME280;63529;56.320;43.990;2023-02-28T03:04:30;99428.03;;;-7.40;69.40
74973;BME280;63529;56.320;43.990;2023-02-28T03:06:58;99419.13;;;-7.37;69.57
74973;BME280;63529;56.320;43.990;2023-02-28T03:09:25;99409.59;;;-7.36;69.65
74973;BME280;63529;56.320;43.990;2023-02-28T03:11:54;99411.84;;;-7.33;69.72
74973;BME280;63529;56.320;43.990;2023-02-28T03:15:04;99395.97;;;-7.30;69.75
74973;BME280;63529;56.320;43.990;2023-02-28T03:18:08;99392.44;;;-7.29;69.85
74973;BME280;63529;56.320;43.990;2023-02-28T03:20:41;99373.31;;;-7.28;69.73
74973;BME280;63529;56.320;43.990;2023-02-28T03:23:32;99362.13;;;-7.29;69.81
74973;BME280;63529;56.320;43.990;2023-02-28T03:26:07;99355.16;;;-7.28;69.63
74973;BME280;63529;56.320;43.990;2023-02-28T03:31:17;99330.03;;;-7.28;69.71
74973;BME280;63529;56.320;43.990;2023-02-28T03:33:53;99338.00;;;-7.29;69.67
74973;BME280;63529;56.320;43.990;2023-02-28T03:36:25;99336.34;;;-7.30;69.59
74973;BME280;63529;56.320;43.990;2023-02-28T03:38:58;99331.16;;;-7.30;69.51
74973;BME280;63529;56.320;43.990;2023-02-28T03:41:32;99330.69;;;-7.34;69.42
74973;BME280;63529;56.320;43.990;2023-02-28T03:44:25;99326.81;;;-7.30;69.40
74973;BME280;63529;56.320;43.990;2023-02-28T03:47:08;99311.38;;;-7.31;69.52
74973;BME280;63529;56.320;43.990;2023-02-28T03:49:46;99301.03;;;-7.31;69.50
74973;BME280;63529;56.320;43.990;2023-02-28T03:52:17;99304.59;;;-7.32;69.51
74973;BME280;63529;56.320;43.990;2023-02-28T03:54:51;99289.03;;;-7.32;69.39
74973;BME280;63529;56.320;43.990;2023-02-28T04:00:16;99297.47;;;-7.30;69.39
74973;BME280;63529;56.320;43.990;2023-02-28T04:02:44;99279.00;;;-7.27;69.38
74973;BME280;63529;56.320;43.990;2023-02-28T04:05:10;99269.28;;;-7.25;69.50
74973;BME280;63529;56.320;43.990;2023-02-28T04:07:36;99261.19;;;-7.22;69.35
74973;BME280;63529;56.320;43.990;2023-02-28T04:10:06;99254.56;;;-7.17;69.38
74973;BME280;63529;56.320;43.990;2023-02-28T04:12:35;99252.94;;;-7.09;69.33
74973;BME280;63529;56.320;43.990;2023-02-28T04:15:04;99233.44;;;-7.05;69.01
74973;BME280;63529;56.320;43.990;2023-02-28T04:17:31;99233.59;;;-6.99;68.93
74973;BME280;63529;56.320;43.990;2023-02-28T04:19:56;99232.31;;;-6.95;68.95
74973;BME280;63529;56.320;43.990;2023-02-28T04:22:23;99222.41;;;-6.91;68.63
74973;BME280;63529;56.320;43.990;2023-02-28T04:24:52;99201.97;;;-6.86;68.60
74973;BME280;63529;56.320;43.990;2023-02-28T04:27:19;99197.91;;;-6.80;68.57
74973;BME280;63529;56.320;43.990;2023-02-28T04:29:45;99196.28;;;-6.73;68.26
74973;BME280;63529;56.320;43.990;2023-02-28T04:32:11;99186.22;;;-6.68;68.15
74973;BME280;63529;56.320;43.990;2023-02-28T04:34:38;99182.94;;;-6.62;67.93
74973;BME280;63529;56.320;43.990;2023-02-28T04:37:04;99178.22;;;-6.50;67.81
74973;BME280;63529;56.320;43.990;2023-02-28T04:39:35;99171.38;;;-6.43;67.60
74973;BME280;63529;56.320;43.990;2023-02-28T04:42:01;99164.97;;;-6.33;67.25
74973;BME280;63529;56.320;43.990;2023-02-28T04:44:27;99161.00;;;-6.20;67.10
74973;BME280;63529;56.320;43.990;2023-02-28T04:46:53;99157.53;;;-6.05;66.81
74973;BME280;63529;56.320;43.990;2023-02-28T04:49:19;99149.16;;;-5.92;66.54
74973;BME280;63529;56.320;43.990;2023-02-28T04:51:45;99158.09;;;-5.71;66.35
74973;BME280;63529;56.320;43.990;2023-02-28T04:54:11;99149.19;;;-5.54;66.20
74973;BME280;63529;56.320;43.990;2023-02-28T04:56:38;99153.88;;;-5.35;65.70
74973;BME280;63529;56.320;43.990;2023-02-28T04:59:04;99146.94;;;-5.20;65.22
74973;BME280;63529;56.320;43.990;2023-02-28T05:01:32;99152.75;;;-5.03;64.77
74973;BME280;63529;56.320;43.990;2023-02-28T05:04:01;99158.00;;;-4.88;64.63
74973;BME280;63529;56.320;43.990;2023-02-28T05:06:30;99170.09;;;-4.66;64.29
74973;BME280;63529;56.320;43.990;2023-02-28T05:08:57;99154.91;;;-4.47;63.84
74973;BME280;63529;56.320;43.990;2023-02-28T05:11:31;99158.31;;;-4.32;63.37
74973;BME280;63529;56.320;43.990;2023-02-28T05:14:05;99149.03;;;-4.20;62.96
74973;BME280;63529;56.320;43.990;2023-02-28T05:16:32;99147.94;;;-4.11;62.20
74973;BME280;63529;56.320;43.990;2023-02-28T05:18:59;99141.34;;;-4.06;62.00
74973;BME280;63529;56.320;43.990;2023-02-28T05:21:32;99137.19;;;-4.01;62.03
74973;BME280;63529;56.320;43.990;2023-02-28T05:24:02;99110.94;;;-3.99;61.22
74973;BME280;63529;56.320;43.990;2023-02-28T05:26:28;99112.00;;;-3.94;60.94
74973;BME280;63529;56.320;43.990;2023-02-28T05:28:54;99105.69;;;-3.85;61.02
74973;BME280;63529;56.320;43.990;2023-02-28T05:31:21;99108.84;;;-3.68;61.09
74973;BME280;63529;56.320;43.990;2023-02-28T05:33:47;99094.94;;;-3.47;60.88
74973;BME280;63529;56.320;43.990;2023-02-28T05:36:13;99084.75;;;-3.14;60.24
74973;BME280;63529;56.320;43.990;2023-02-28T05:38:40;99073.31;;;-2.71;58.95
74973;BME280;63529;56.320;43.990;2023-02-28T05:41:07;99060.00;;;-2.22;57.88
74973;BME280;63529;56.320;43.990;2023-02-28T05:43:34;99042.72;;;-1.77;56.91
74973;BME280;63529;56.320;43.990;2023-02-28T05:46:05;99026.41;;;-1.46;56.12
74973;BME280;63529;56.320;43.990;2023-02-28T05:48:33;99036.25;;;-1.28;55.01
74973;BME280;63529;56.320;43.990;2023-02-28T05:50:59;99018.13;;;-1.23;54.62
74973;BME280;63529;56.320;43.990;2023-02-28T05:53:26;99009.88;;;-1.26;53.84
74973;BME280;63529;56.320;43.990;2023-02-28T05:55:52;98992.34;;;-1.26;53.35
74973;BME280;63529;56.320;43.990;2023-02-28T05:58:18;98999.81;;;-1.23;53.50
74973;BME280;63529;56.320;43.990;2023-02-28T06:00:44;98981.69;;;-1.31;52.85
74973;BME280;63529;56.320;43.990;2023-02-28T06:03:11;98984.75;;;-1.41;52.55
74973;BME280;63529;56.320;43.990;2023-02-28T06:05:37;98990.38;;;-1.50;53.01
74973;BME280;63529;56.320;43.990;2023-02-28T06:08:04;98987.59;;;-1.49;53.68
74973;BME280;63529;56.320;43.990;2023-02-28T06:10:34;98976.22;;;-1.16;53.82
74973;BME280;63529;56.320;43.990;2023-02-28T06:13:00;98961.94;;;-0.75;52.97
74973;BME280;63529;56.320;43.990;2023-02-28T06:15:28;98951.91;;;-0.53;51.74
74973;BME280;63529;56.320;43.990;2023-02-28T06:17:54;98947.47;;;-0.53;51.29
74973;BME280;63529;56.320;43.990;2023-02-28T06:20:23;98947.41;;;-0.71;51.23
74973;BME280;63529;56.320;43.990;2023-02-28T06:22:49;98935.59;;;-0.87;51.71
74973;BME280;63529;56.320;43.990;2023-02-28T06:25:20;98922.53;;;-0.94;51.87
74973;BME280;63529;56.320;43.990;2023-02-28T06:27:46;98925.31;;;-0.89;51.98
74973;BME280;63529;56.320;43.990;2023-02-28T06:30:12;98901.50;;;-0.80;51.87
74973;BME280;63529;56.320;43.990;2023-02-28T06:32:38;98894.91;;;-0.58;51.91
74973;BME280;63529;56.320;43.990;2023-02-28T06:35:05;98891.81;;;-0.23;50.94
74973;BME280;63529;56.320;43.990;2023-02-28T06:37:32;98876.63;;;0.04;50.17
74973;BME280;63529;56.320;43.990;2023-02-28T06:39:58;98855.84;;;0.39;49.66
74973;BME280;63529;56.320;43.990;2023-02-28T06:42:25;98856.13;;;0.97;48.39
74973;BME280;63529;56.320;43.990;2023-02-28T06:44:55;98851.16;;;1.19;47.74
74973;BME280;63529;56.320;43.990;2023-02-28T06:47:21;98841.63;;;3.49;46.23
74973;BME280;63529;56.320;43.990;2023-02-28T06:49:47;98827.06;;;6.34;41.55
74973;BME280;63529;56.320;43.990;2023-02-28T06:52:14;98821.84;;;8.87;37.64
74973;BME280;63529;56.320;43.990;2023-02-28T06:54:40;98827.69;;;11.01;33.52
74973;BME280;63529;56.320;43.990;2023-02-28T06:57:06;98799.00;;;12.59;31.68
74973;BME280;63529;56.320;43.990;2023-02-28T06:59:32;98795.88;;;13.38;30.08
74973;BME280;63529;56.320;43.990;2023-02-28T07:01:58;98780.63;;;13.47;29.83
74973;BME280;63529;56.320;43.990;2023-02-28T07:04:24;98768.78;;;13.71;30.09
74973;BME280;63529;56.320;43.990;2023-02-28T07:06:50;98777.78;;;13.75;28.62
74973;BME280;63529;56.320;43.990;2023-02-28T07:09:16;98773.72;;;13.55;29.40
74973;BME280;63529;56.320;43.990;2023-02-28T07:11:42;98780.03;;;13.50;29.64
74973;BME280;63529;56.320;43.990;2023-02-28T07:14:08;98768.06;;;14.36;28.60
74973;BME280;63529;56.320;43.990;2023-02-28T07:16:36;98751.41;;;14.91;27.79
74973;BME280;63529;56.320;43.990;2023-02-28T07:19:02;98740.50;;;14.04;27.72
74973;BME280;63529;56.320;43.990;2023-02-28T07:21:28;98734.47;;;12.47;28.68
74973;BME280;63529;56.320;43.990;2023-02-28T07:23:55;98749.63;;;11.55;30.50
74973;BME280;63529;56.320;43.990;2023-02-28T07:26:22;98738.81;;;11.47;31.74
74973;BME280;63529;56.320;43.990;2023-02-28T07:28:48;98738.38;;;12.27;31.12
74973;BME280;63529;56.320;43.990;2023-02-28T07:31:16;98736.44;;;14.16;29.70
74973;BME280;63529;56.320;43.990;2023-02-28T07:33:42;98736.38;;;14.73;28.52
74973;BME280;63529;56.320;43.990;2023-02-28T07:36:11;98715.81;;;14.42;28.49
74973;BME280;63529;56.320;43.990;2023-02-28T07:38:42;98694.81;;;13.70;29.33
74973;BME280;63529;56.320;43.990;2023-02-28T07:41:09;98689.00;;;12.69;30.33
74973;BME280;63529;56.320;43.990;2023-02-28T07:43:35;98700.72;;;12.23;30.93
74973;BME280;63529;56.320;43.990;2023-02-28T07:46:09;98692.81;;;12.55;30.04
74973;BME280;63529;56.320;43.990;2023-02-28T07:48:36;98685.69;;;13.40;29.54
74973;BME280;63529;56.320;43.990;2023-02-28T07:51:02;98682.00;;;14.41;28.84
74973;BME280;63529;56.320;43.990;2023-02-28T07:53:29;98679.84;;;13.86;29.02
74973;BME280;63529;56.320;43.990;2023-02-28T07:55:58;98679.41;;;12.18;30.32
74973;BME280;63529;56.320;43.990;2023-02-28T07:58:26;98672.22;;;10.39;31.51
74973;BME280;63529;56.320;43.990;2023-02-28T08:00:52;98677.25;;;8.96;33.55
74973;BME280;63529;56.320;43.990;2023-02-28T08:03:19;98674.78;;;7.82;34.96
74973;BME280;63529;56.320;43.990;2023-02-28T08:05:45;98686.13;;;6.98;36.69
74973;BME280;63529;56.320;43.990;2023-02-28T08:08:11;98675.47;;;6.27;37.69
74973;BME280;63529;56.320;43.990;2023-02-28T08:10:37;98674.94;;;5.67;38.64
74973;BME280;63529;56.320;43.990;2023-02-28T08:13:03;98671.25;;;5.21;39.45
74973;BME280;63529;56.320;43.990;2023-02-28T08:15:29;98675.22;;;4.81;40.15
74973;BME280;63529;56.320;43.990;2023-02-28T08:17:56;98672.88;;;4.52;40.62
74973;BME280;63529;56.320;43.990;2023-02-28T08:20:23;98658.31;;;4.23;41.14
74973;BME280;63529;56.320;43.990;2023-02-28T08:22:50;98683.91;;;3.95;41.53
74973;BME280;63529;56.320;43.990;2023-02-28T08:25:16;98692.13;;;3.77;42.25
74973;BME280;63529;56.320;43.990;2023-02-28T08:27:42;98693.00;;;3.61;42.79
74973;BME280;63529;56.320;43.990;2023-02-28T08:30:11;98685.69;;;3.46;43.19
74973;BME280;63529;56.320;43.990;2023-02-28T08:32:37;98680.94;;;3.26;43.24
74973;BME280;63529;56.320;43.990;2023-02-28T08:35:03;98673.81;;;3.10;43.84
74973;BME280;63529;56.320;43.990;2023-02-28T08:37:29;98680.16;;;2.92;43.92
74973;BME280;63529;56.320;43.990;2023-02-28T08:39:55;98695.06;;;2.86;44.33
74973;BME280;63529;56.320;43.990;2023-02-28T08:42:22;98684.31;;;2.71;44.33
74973;BME280;63529;56.320;43.990;2023-02-28T08:44:48;98670.56;;;2.52;44.94
74973;BME280;63529;56.320;43.990;2023-02-28T08:47:14;98667.91;;;2.35;44.94
74973;BME280;63529;56.320;43.990;2023-02-28T08:49:40;98674.28;;;2.23;44.88
74973;BME280;63529;56.320;43.990;2023-02-28T08:52:05;98680.47;;;2.16;45.25
74973;BME280;63529;56.320;43.990;2023-02-28T08:54:32;98673.28;;;2.12;45.80
74973;BME280;63529;56.320;43.990;2023-02-28T08:56:59;98673.41;;;2.05;45.89
74973;BME280;63529;56.320;43.990;2023-02-28T08:59:25;98665.41;;;2.00;45.73
74973;BME280;63529;56.320;43.990;2023-02-28T09:01:51;98662.47;;;1.97;46.44
74973;BME280;63529;56.320;43.990;2023-02-28T09:04:18;98655.28;;;1.92;46.20
74973;BME280;63529;56.320;43.990;2023-02-28T09:06:44;98656.69;;;1.83;46.26
74973;BME280;63529;56.320;43.990;2023-02-28T09:09:10;98663.56;;;1.72;46.86
74973;BME280;63529;56.320;43.990;2023-02-28T09:11:36;98638.56;;;1.58;46.71
74973;BME280;63529;56.320;43.990;2023-02-28T09:14:02;98638.84;;;1.45;47.05
74973;BME280;63529;56.320;43.990;2023-02-28T09:16:30;98649.69;;;1.36;47.44
74973;BME280;63529;56.320;43.990;2023-02-28T09:18:56;98653.16;;;1.25;47.59
74973;BME280;63529;56.320;43.990;2023-02-28T09:21:23;98648.00;;;1.19;47.93
74973;BME280;63529;56.320;43.990;2023-02-28T09:23:50;98647.91;;;1.14;48.10
74973;BME280;63529;56.320;43.990;2023-02-28T09:26:21;98650.75;;;1.12;48.47
74973;BME280;63529;56.320;43.990;2023-02-28T09:28:48;98644.13;;;1.09;48.30
74973;BME280;63529;56.320;43.990;2023-02-28T09:31:20;98647.44;;;1.05;48.40
74973;BME280;63529;56.320;43.990;2023-02-28T09:33:48;98651.56;;;1.01;48.64
74973;BME280;63529;56.320;43.990;2023-02-28T09:36:15;98647.09;;;1.01;48.99
74973;BME280;63529;56.320;43.990;2023-02-28T09:38:41;98647.09;;;1.01;49.03
74973;BME280;63529;56.320;43.990;2023-02-28T09:41:15;98647.34;;;1.00;49.60
74973;BME280;63529;56.320;43.990;2023-02-28T09:43:46;98646.19;;;0.96;49.83
74973;BME280;63529;56.320;43.990;2023-02-28T09:48:51;98628.94;;;0.88;50.02
74973;BME280;63529;56.320;43.990;2023-02-28T09:53:44;98635.78;;;0.77;50.18
74973;BME280;63529;56.320;43.990;2023-02-28T09:56:11;98641.94;;;0.71;50.36
74973;BME280;63529;56.320;43.990;2023-02-28T09:58:55;98636.22;;;0.63;50.65
74973;BME280;63529;56.320;43.990;2023-02-28T10:01:36;98629.03;;;0.58;50.83
74973;BME280;63529;56.320;43.990;2023-02-28T10:06:58;98638.72;;;0.58;51.12
74973;BME280;63529;56.320;43.990;2023-02-28T10:09:30;98625.03;;;0.56;51.63
74973;BME280;63529;56.320;43.990;2023-02-28T10:12:04;98619.88;;;0.49;51.67
74973;BME280;63529;56.320;43.990;2023-02-28T10:14:34;98624.88;;;0.39;51.95
74973;BME280;63529;56.320;43.990;2023-02-28T10:17:04;98624.88;;;0.27;52.31
74973;BME280;63529;56.320;43.990;2023-02-28T10:20:01;98630.31;;;0.14;52.68
74973;BME280;63529;56.320;43.990;2023-02-28T10:23:04;98620.22;;;-0.01;53.41
74973;BME280;63529;56.320;43.990;2023-02-28T10:25:33;98608.00;;;-0.07;53.86
74973;BME280;63529;56.320;43.990;2023-02-28T10:28:16;98613.13;;;-0.12;54.31
74973;BME280;63529;56.320;43.990;2023-02-28T10:30:51;98603.88;;;-0.15;54.41
74973;BME280;63529;56.320;43.990;2023-02-28T10:33:24;98608.88;;;-0.13;54.50
74973;BME280;63529;56.320;43.990;2023-02-28T10:35:51;98594.63;;;-0.17;54.76
74973;BME280;63529;56.320;43.990;2023-02-28T10:38:24;98605.13;;;-0.17;55.05
74973;BME280;63529;56.320;43.990;2023-02-28T10:40:51;98599.88;;;-0.17;55.17
74973;BME280;63529;56.320;43.990;2023-02-28T10:43:20;98600.59;;;-0.10;55.39
74973;BME280;63529;56.320;43.990;2023-02-28T10:49:02;98588.88;;;0.04;55.57
74973;BME280;63529;56.320;43.990;2023-02-28T10:51:37;98578.63;;;0.03;55.59
74973;BME280;63529;56.320;43.990;2023-02-28T10:54:04;98579.28;;;-0.02;55.89
74973;BME280;63529;56.320;43.990;2023-02-28T10:56:32;98576.41;;;-0.12;55.87
74973;BME280;63529;56.320;43.990;2023-02-28T10:59:08;98563.50;;;-0.25;56.59
74973;BME280;63529;56.320;43.990;2023-02-28T11:01:48;98549.16;;;-0.41;56.73
74973;BME280;63529;56.320;43.990;2023-02-28T11:06:43;98549.72;;;-0.51;57.52
74973;BME280;63529;56.320;43.990;2023-02-28T11:09:23;98541.84;;;-0.51;57.70
74973;BME280;63529;56.320;43.990;2023-02-28T11:11:51;98544.47;;;-0.51;57.76
74973;BME280;63529;56.320;43.990;2023-02-28T11:14:29;98542.06;;;-0.52;57.90
74973;BME280;63529;56.320;43.990;2023-02-28T11:17:03;98551.31;;;-0.50;58.27
74973;BME280;63529;56.320;43.990;2023-02-28T11:19:45;98544.47;;;-0.51;58.52
74973;BME280;63529;56.320;43.990;2023-02-28T11:22:18;98542.66;;;-0.50;58.94
74973;BME280;63529;56.320;43.990;2023-02-28T11:24:47;98541.41;;;-0.48;59.00
74973;BME280;63529;56.320;43.990;2023-02-28T11:29:51;98531.94;;;-0.49;59.36
74973;BME280;63529;56.320;43.990;2023-02-28T11:32:24;98530.13;;;-0.48;59.40
74973;BME280;63529;56.320;43.990;2023-02-28T11:35:14;98532.97;;;-0.50;59.62
74973;BME280;63529;56.320;43.990;2023-02-28T11:37:42;98550.59;;;-0.57;59.97
74973;BME280;63529;56.320;43.990;2023-02-28T11:40:16;98554.53;;;-0.66;60.07
74973;BME280;63529;56.320;43.990;2023-02-28T11:45:29;98530.84;;;-0.71;60.57
74973;BME280;63529;56.320;43.990;2023-02-28T11:50:41;98538.09;;;-0.73;60.79
74973;BME280;63529;56.320;43.990;2023-02-28T11:55:48;98526.25;;;-0.76;61.49
74973;BME280;63529;56.320;43.990;2023-02-28T11:59:01;98526.25;;;-0.76;61.68
74973;BME280;63529;56.320;43.990;2023-02-28T12:04:25;98515.06;;;-0.83;62.02
74973;BME280;63529;56.320;43.990;2023-02-28T12:07:08;98517.44;;;-0.82;62.19
74973;BME280;63529;56.320;43.990;2023-02-28T12:09:51;98515.84;;;-0.83;62.49
74973;BME280;63529;56.320;43.990;2023-02-28T12:15:36;98508.34;;;-0.79;62.82
74973;BME280;63529;56.320;43.990;2023-02-28T12:29:09;98490.22;;;-0.80;63.64
74973;BME280;63529;56.320;43.990;2023-02-28T12:31:46;98484.66;;;-0.84;63.82
74973;BME280;63529;56.320;43.990;2023-02-28T12:34:20;98481.22;;;-0.85;63.86
74973;BME280;63529;56.320;43.990;2023-02-28T12:36:47;98462.75;;;-0.90;64.07
74973;BME280;63529;56.320;43.990;2023-02-28T12:39:23;98457.94;;;-0.93;64.31
74973;BME280;63529;56.320;43.990;2023-02-28T12:41:56;98452.00;;;-1.00;64.51
74973;BME280;63529;56.320;43.990;2023-02-28T12:47:34;98435.16;;;-1.04;65.05
74973;BME280;63529;56.320;43.990;2023-02-28T12:50:08;98441.97;;;-1.03;64.99
74973;BME280;63529;56.320;43.990;2023-02-28T12:55:14;98439.34;;;-1.03;65.13
74973;BME280;63529;56.320;43.990;2023-02-28T12:58:11;98439.34;;;-1.03;65.50
74973;BME280;63529;56.320;43.990;2023-02-28T13:00:55;98428.28;;;-1.05;65.51
74973;BME280;63529;56.320;43.990;2023-02-28T13:09:19;98432.69;;;-1.17;65.62
74973;BME280;63529;56.320;43.990;2023-02-28T13:11:49;98438.72;;;-1.17;65.71
74973;BME280;63529;56.320;43.990;2023-02-28T13:19:33;98427.09;;;-1.21;66.22
74973;BME280;63529;56.320;43.990;2023-02-28T13:22:01;98428.34;;;-1.23;66.43
74973;BME280;63529;56.320;43.990;2023-02-28T13:24:43;98421.28;;;-1.23;66.43
74973;BME280;63529;56.320;43.990;2023-02-28T13:29:37;98426.38;;;-1.28;66.65
74973;BME280;63529;56.320;43.990;2023-02-28T13:34:41;98431.22;;;-1.31;66.78
74973;BME280;63529;56.320;43.990;2023-02-28T13:40:27;98418.16;;;-1.31;67.35
74973;BME280;63529;56.320;43.990;2023-02-28T13:42:54;98424.41;;;-1.32;67.25
74973;BME280;63529;56.320;43.990;2023-02-28T13:45:25;98426.22;;;-1.33;67.39
74973;BME280;63529;56.320;43.990;2023-02-28T13:48:15;98414.38;;;-1.35;67.82
74973;BME280;63529;56.320;43.990;2023-02-28T13:50:42;98421.44;;;-1.36;67.61
74973;BME280;63529;56.320;43.990;2023-02-28T13:55:46;98404.94;;;-1.37;67.82
74973;BME280;63529;56.320;43.990;2023-02-28T14:03:53;98400.38;;;-1.41;67.85
74973;BME280;63529;56.320;43.990;2023-02-28T14:06:27;98403.19;;;-1.43;67.95
74973;BME280;63529;56.320;43.990;2023-02-28T14:08:59;98407.84;;;-1.45;68.18
74973;BME280;63529;56.320;43.990;2023-02-28T14:13:57;98393.00;;;-1.51;68.43
74973;BME280;63529;56.320;43.990;2023-02-28T14:16:44;98401.88;;;-1.52;68.44
74973;BME280;63529;56.320;43.990;2023-02-28T14:22:13;98392.88;;;-1.56;68.62
74973;BME280;63529;56.320;43.990;2023-02-28T14:27:48;98391.50;;;-1.58;69.07
74973;BME280;63529;56.320;43.990;2023-02-28T14:36:17;98389.56;;;-1.63;68.97
74973;BME280;63529;56.320;43.990;2023-02-28T14:38:53;98380.31;;;-1.66;69.22
74973;BME280;63529;56.320;43.990;2023-02-28T14:41:35;98382.94;;;-1.66;69.31
74973;BME280;63529;56.320;43.990;2023-02-28T14:44:14;98372.13;;;-1.69;69.39
74973;BME280;63529;56.320;43.990;2023-02-28T14:46:41;98366.06;;;-1.70;69.51
74973;BME280;63529;56.320;43.990;2023-02-28T14:49:28;98370.50;;;-1.70;69.59
74973;BME280;63529;56.320;43.990;2023-02-28T14:54:31;98363.66;;;-1.71;69.70
74973;BME280;63529;56.320;43.990;2023-02-28T14:56:57;98367.09;;;-1.71;69.70
74973;BME280;63529;56.320;43.990;2023-02-28T14:59:29;98374.34;;;-1.73;69.80
74973;BME280;63529;56.320;43.990;2023-02-28T15:02:18;98370.72;;;-1.72;69.82
74973;BME280;63529;56.320;43.990;2023-02-28T15:04:53;98365.50;;;-1.72;69.97
74973;BME280;63529;56.320;43.990;2023-02-28T15:07:19;98367.53;;;-1.74;69.96
74973;BME280;63529;56.320;43.990;2023-02-28T15:12:36;98361.28;;;-1.73;70.15